• Join FlightAware (Why Join?)
  • Login
  • US Flag 
03:20PM EDT


 

Airport Tracker/Info


-or-


 

Live Flight TrackerFlight Track Log ✈ MTN8474 ✈ 12-Oct-2013 ✈ KLCK - KPKB

Flight Track Log - Related Links

Times and Time Zones

All times are in EDT time to prevent confusion due to time zone crossing. See the MTN8474 flight status page for this flight to view local times or setup timezone preferences in your user account.

Time Position Orientation Groundspeed Altitude Reporting Facility
EDT Latitude Longitude Course Direction KTS MPH feet Rate Location/Type
06:52AM 39.8181 -82.9242 225° Southwest 82 94 900  Level Indianapolis Center
06:53AM 39.8011 -82.9461 225° Southwest 87 100 1,600 840 Climbing Indianapolis Center
06:54AM 39.7797 -82.9725 223° Southwest 105 121 2,600 900 Climbing Indianapolis Center
06:54AM 39.7800 -82.9708 78° East 96 110 2,600 780 Level Indianapolis Center
06:55AM 39.7558 -82.9822 200° South 116 133 3,400 540 Climbing Indianapolis Center
06:55AM 39.7500 -82.9861 207° Southwest 106 122 3,200 780 Descending Indianapolis Center
06:56AM 39.7447 -82.9450 99° East 104 120 4,200 960 Climbing Indianapolis Center
06:56AM 39.7456 -82.9469 299° West 108 124 4,200 780 Level Indianapolis Center
06:57AM 39.7356 -82.9083 109° East 108 124 5,000 780 Climbing Indianapolis Center
06:57AM 39.7361 -82.9094 303° West 109 125 5,000 780 Level Indianapolis Center
06:58AM 39.7283 -82.8717 105° East 110 127 5,800 660 Climbing Indianapolis Center
06:58AM 39.7292 -82.8728 314° West 109 125 5,700 840 Descending Indianapolis Center
06:59AM 39.7194 -82.8322 107° East 113 130 6,700 900 Climbing Indianapolis Center
06:59AM 39.7214 -82.8325 354° North 112 129 6,600 360 Descending Indianapolis Center
07:00AM 39.7089 -82.7897 111° Southeast 118 136 7,100 540 Climbing Indianapolis Center
07:00AM 39.7097 -82.7919 296° West 115 132 7,200 -120 Climbing Indianapolis Center
07:01AM 39.6947 -82.7386 110° East 155 178 7,000 -120 Descending Indianapolis Center
07:01AM 39.6953 -82.7408 288° West 142 163 7,100  Climbing Indianapolis Center
07:02AM 39.6803 -82.6903 111° Southeast 151 174 7,000  Descending Indianapolis Center
07:02AM 39.6817 -82.6897 17° North 150 173 7,100  Climbing Indianapolis Center
07:03AM 39.6664 -82.6364 110° East 149 171 7,000  Descending Indianapolis Center
07:03AM 39.6711 -82.6392 336° Northwest 151 174 7,100 60 Climbing Indianapolis Center
07:04AM 39.6539 -82.5903 115° Southeast 148 170 7,100  Level Indianapolis Center
07:05AM 39.6408 -82.5408 109° East 146 168 7,100  Level Indianapolis Center
07:06AM 39.6289 -82.4903 107° East 146 168 7,100  Level Indianapolis Center
07:07AM 39.6164 -82.4386 107° East 149 171 7,100  Level Indianapolis Center
07:08AM 39.6033 -82.3900 109° East 146 168 7,100  Level Indianapolis Center
07:09AM 39.5894 -82.3278 106° East 149 171 7,100  Level Indianapolis Center
07:10AM 39.5792 -82.2772 105° East 148 170 7,100  Level Indianapolis Center
07:11AM 39.5667 -82.2325 110° East 137 158 7,100  Level Indianapolis Center
07:12AM 39.5564 -82.1928 109° East 125 144 7,100  Level Indianapolis Center
07:13AM 39.5453 -82.1506 109° East 123 142 7,100  Level Indianapolis Center
07:14AM 39.5347 -82.1083 108° East 123 142 7,100  Level Indianapolis Center
07:15AM 39.5228 -82.0669 111° Southeast 123 142 7,100  Level Indianapolis Center
07:16AM 39.5114 -82.0256 110° East 122 140 7,100  Level Indianapolis Center
07:17AM 39.5000 -81.9833 109° East 123 142 7,100  Level Indianapolis Center
07:18AM 39.4861 -81.9453 115° Southeast 122 140 7,100  Level Indianapolis Center
07:19AM 39.4742 -81.9089 113° Southeast 116 133 7,100  Level Indianapolis Center
07:20AM 39.4633 -81.8703 110° East 113 130 7,100  Level Indianapolis Center
07:21AM 39.4533 -81.8314 108° East 113 130 7,100  Level Indianapolis Center
07:22AM 39.4414 -81.7911 111° Southeast 117 135 7,100  Level Indianapolis Center
07:23AM 39.4308 -81.7528 110° East 115 132 7,100 -240 Level Indianapolis Center
07:24AM 39.4206 -81.7122 108° East 117 135 6,700 -480 Descending Indianapolis Center
07:25AM 39.4097 -81.6742 110° East 114 131 6,200 -300 Descending Indianapolis Center
07:26AM 39.3931 -81.6406 123° Southeast 112 129 6,100 -60 Descending Indianapolis Center
07:27AM 39.3692 -81.6169 143° Southeast 110 127 6,100  Level Indianapolis Center
07:28AM 39.3414 -81.5856 139° Southeast 110 127 6,100  Level Indianapolis Center
07:29AM 39.3194 -81.5594 137° Southeast 109 125 6,100  Level Indianapolis Center
07:30AM 39.2967 -81.5331 138° Southeast 109 125 6,100  Level Indianapolis Center
07:31AM 39.2733 -81.5072 139° Southeast 110 127 6,100  Level Indianapolis Center
07:32AM 39.2511 -81.4797 136° Southeast 110 127 6,100  Level Indianapolis Center
07:33AM 39.2292 -81.4544 138° Southeast 108 124 6,100  Level Indianapolis Center
07:34AM 39.1981 -81.4625 191° South 118 136 6,100  Level Indianapolis Center
07:35AM 39.1653 -81.4756 197° South 122 140 6,100  Level Indianapolis Center
07:36AM 39.1347 -81.4867 196° South 117 135 6,100  Level Indianapolis Center
07:37AM 39.1022 -81.5006 198° South 120 138 6,100  Level Indianapolis Center
07:38AM 39.0778 -81.5247 218° Southwest 130 150 6,100  Level Indianapolis Center
07:39AM 39.1053 -81.5431 333° Northwest 115 132 6,100  Level Indianapolis Center
07:40AM 39.1386 -81.5406 North 117 135 6,100  Level Indianapolis Center
07:41AM 39.1672 -81.5242 24° Northeast 113 130 6,100  Level Indianapolis Center
07:42AM 39.1986 -81.5094 20° North 118 136 6,100  Level Indianapolis Center
07:43AM 39.2297 -81.4950 20° North 118 136 6,100  Level Indianapolis Center
07:44AM 39.2611 -81.4792 21° North 119 137 6,100  Level Indianapolis Center
07:45AM 39.2644 -81.4525 81° East 126 145 6,100  Level Indianapolis Center
07:46AM 39.2342 -81.4667 200° South 119 137 6,100  Level Indianapolis Center
07:47AM 39.1956 -81.4864 202° Southwest 122 140 6,100  Level Indianapolis Center
07:48AM 39.1639 -81.4986 197° South 120 138 6,100  Level Indianapolis Center
07:49AM 39.1319 -81.5014 184° South 114 131 6,100  Level Indianapolis Center
07:50AM 39.1008 -81.5136 197° South 117 135 6,100  Level Indianapolis Center
07:51AM 39.0736 -81.5358 212° Southwest 128 147 6,100  Level Indianapolis Center
07:52AM 39.1022 -81.5544 333° Northwest 121 139 6,100  Level Indianapolis Center
07:53AM 39.1319 -81.5406 20° North 113 130 6,100  Level Indianapolis Center
07:54AM 39.1636 -81.5261 19° North 118 136 6,100  Level Indianapolis Center
07:55AM 39.1947 -81.5117 20° North 119 137 6,100  Level Indianapolis Center
07:56AM 39.2278 -81.4964 20° North 124 143 6,100  Level Indianapolis Center
07:58AM 39.2581 -81.4803 22° Northeast 120 138 6,100  Level Indianapolis Center
07:59AM 39.2500 -81.4578 115° Southeast 127 146 6,100  Level Indianapolis Center
08:00AM 39.2214 -81.4758 206° Southwest 113 130 6,100  Level Indianapolis Center
08:01AM 39.1892 -81.4897 198° South 120 138 6,100  Level Indianapolis Center
08:02AM 39.1586 -81.5028 198° South 117 135 6,100  Level Indianapolis Center
08:03AM 39.1264 -81.5156 197° South 119 137 6,100  Level Indianapolis Center
08:04AM 39.0958 -81.5311 202° Southwest 118 136 6,100  Level Indianapolis Center
08:05AM 39.0897 -81.5667 258° West 130 150 6,100  Level Indianapolis Center
08:06AM 39.1178 -81.5561 16° North 114 131 6,100  Level Indianapolis Center
08:07AM 39.1464 -81.5356 29° Northeast 115 132 6,100  Level Indianapolis Center
08:08AM 39.1781 -81.5208 20° North 119 137 6,100  Level Indianapolis Center
08:09AM 39.2106 -81.5058 20° North 122 140 6,100  Level Indianapolis Center
08:10AM 39.2419 -81.4886 23° Northeast 123 142 6,100  Level Indianapolis Center
08:11AM 39.2725 -81.4753 19° North 118 136 6,100  Level Indianapolis Center
08:12AM 39.2567 -81.4611 145° Southeast 120 138 6,100  Level Indianapolis Center
08:13AM 39.2239 -81.4747 198° South 120 138 6,100  Level Indianapolis Center
08:14AM 39.1925 -81.4883 199° South 120 138 6,100  Level Indianapolis Center
08:15AM 39.1606 -81.5031 200° South 122 140 6,100  Level Indianapolis Center
08:16AM 39.1283 -81.5161 197° South 121 139 6,100  Level Indianapolis Center
08:17AM 39.0967 -81.5275 196° South 120 138 6,100  Level Indianapolis Center
08:18AM 39.0836 -81.5583 241° Southwest 132 152 6,100  Level Indianapolis Center
08:19AM 39.1150 -81.5542 North 126 145 6,100  Level Indianapolis Center
08:20AM 39.1508 -81.5344 23° Northeast 117 135 6,100  Level Indianapolis Center
08:21AM 39.1822 -81.5189 21° North 120 138 6,100  Level Indianapolis Center
08:22AM 39.2106 -81.4975 30° Northeast 119 137 6,100  Level Indianapolis Center
08:23AM 39.2439 -81.4858 15° North 121 139 6,100 -60 Level Indianapolis Center
08:24AM 39.2653 -81.4625 40° Northeast 125 144 6,000  Descending Indianapolis Center
08:25AM 39.2361 -81.4661 185° South 120 138 6,100  Climbing Indianapolis Center
08:26AM 39.2056 -81.4803 200° South 117 135 6,100  Level Indianapolis Center
08:27AM 39.1728 -81.4936 198° South 120 138 6,100  Level Indianapolis Center
08:28AM 39.1400 -81.5075 198° South 122 140 6,100  Level Indianapolis Center
08:29AM 39.1092 -81.5219 200° South 121 139 6,100 -60 Level Indianapolis Center
08:30AM 39.0783 -81.5406 205° Southwest 140 161 6,000  Descending Indianapolis Center
08:31AM 39.1025 -81.5586 330° Northwest 121 139 6,100  Climbing Indianapolis Center
08:32AM 39.1342 -81.5425 22° Northeast 120 138 6,100  Level Indianapolis Center
08:33AM 39.1658 -81.5267 21° North 121 139 6,100  Level Indianapolis Center
08:34AM 39.2039 -81.5089 20° North 121 139 6,100  Level Indianapolis Center
08:35AM 39.2358 -81.4919 22° Northeast 123 142 6,100  Level Indianapolis Center
08:36AM 39.2683 -81.4767 20° North 123 142 6,100  Level Indianapolis Center
08:37AM 39.2506 -81.4606 145° Southeast 118 136 6,100  Level Indianapolis Center
08:38AM 39.2175 -81.4744 198° South 123 142 6,100  Level Indianapolis Center
08:39AM 39.1853 -81.4889 199° South 122 140 6,100  Level Indianapolis Center
08:40AM 39.1533 -81.5022 198° South 121 139 6,100  Level Indianapolis Center
08:41AM 39.1214 -81.5161 199° South 122 140 6,100  Level Indianapolis Center
08:42AM 39.0883 -81.5300 198° South 123 142 6,100  Level Indianapolis Center
08:43AM 39.0942 -81.5619 283° West 136 157 6,100  Level Indianapolis Center
08:44AM 39.1258 -81.5472 20° North 120 138 6,100  Level Indianapolis Center
08:45AM 39.1572 -81.5306 22° Northeast 122 140 6,100  Level Indianapolis Center
08:46AM 39.1961 -81.5114 21° North 123 142 6,100  Level Indianapolis Center
08:47AM 39.2278 -81.4961 20° North 123 142 6,100  Level Indianapolis Center
08:48AM 39.2600 -81.4797 21° North 123 142 6,100  Level Indianapolis Center
08:49AM 39.2583 -81.4544 95° East 124 143 6,100  Level Indianapolis Center
08:50AM 39.2281 -81.4692 201° Southwest 118 136 6,100  Level Indianapolis Center
08:51AM 39.1953 -81.4842 200° South 122 140 6,100  Level Indianapolis Center
08:52AM 39.1628 -81.4972 197° South 122 140 6,100  Level Indianapolis Center
08:53AM 39.1317 -81.5103 198° South 119 137 6,100  Level Indianapolis Center
08:55AM 39.0986 -81.5233 197° South 122 140 6,100  Level Indianapolis Center
08:56AM 39.0817 -81.5536 234° Southwest 149 171 6,100  Level Indianapolis Center
08:57AM 39.1217 -81.5494 North 123 142 6,100  Level Indianapolis Center
08:58AM 39.1531 -81.5322 23° Northeast 121 139 6,100  Level Indianapolis Center
08:59AM 39.1844 -81.5175 20° North 120 138 6,100  Level Indianapolis Center
09:00AM 39.2172 -81.5014 21° North 124 143 6,100  Level Indianapolis Center
09:01AM 39.2497 -81.4850 21° North 125 144 6,100  Level Indianapolis Center
09:02AM 39.2694 -81.4606 44° Northeast 120 138 6,100  Level Indianapolis Center
09:03AM 39.2378 -81.4639 185° South 132 152 6,100  Level Indianapolis Center
09:04AM 39.2067 -81.4778 199° South 120 138 6,100  Level Indianapolis Center
09:05AM 39.1747 -81.4928 200° South 122 140 6,100  Level Indianapolis Center
09:06AM 39.1419 -81.5056 197° South 122 140 6,100  Level Indianapolis Center
09:07AM 39.1028 -81.5217 198° South 122 140 6,100  Level Indianapolis Center
09:08AM 39.0819 -81.5483 225° Southwest 132 152 6,100  Level Indianapolis Center
09:09AM 39.1133 -81.5522 355° North 131 151 6,100 -60 Level Indianapolis Center
09:10AM 39.1450 -81.5369 21° North 121 139 6,000 -660 Descending Indianapolis Center
09:11AM 39.1761 -81.5219 20° North 120 138 4,800 -1,140 Descending Indianapolis Center
09:12AM 39.2047 -81.5067 22° Northeast 116 133 3,700 -900 Descending Indianapolis Center
09:13AM 39.2356 -81.4917 21° North 116 133 3,000 -660 Descending Indianapolis Center
09:14AM 39.2664 -81.4767 21° North 117 135 2,400 -600 Descending Indianapolis Center
09:15AM 39.2969 -81.4625 20° North 117 135 1,900 -540 Descending Indianapolis Center